Flight Track Log - Related Links

Times and Time Zones

All times are in EDT time to prevent confusion due to time zone crossing. See the N520GS flight status page for this flight to view local times or setup timezone preferences in your user account.

Time Position Orientation Groundspeed Altitude Reporting Facility
EDT Latitude Longitude Course Direction KTS MPH feet Rate Location/Type
Sun 09:28:06 PM 31.7931 -81.8856 358° North 146 168 5,100  Level Jacksonville Center
Sun 09:29:06 PM 31.8389 -81.8875 358° North 152 175 5,200 50 Climbing Jacksonville Center
Sun 09:30:06 PM 31.8850 -81.8919 355° North 164 189 5,200  Level Jacksonville Center
Sun 09:31:06 PM 31.9247 -81.8989 352° North 159 183 5,200  Level Jacksonville Center
Sun 09:32:06 PM 31.9686 -81.9008 358° North 159 183 5,200  Level Jacksonville Center
Sun 09:33:06 PM 32.0186 -81.9050 356° North 159 183 5,200  Level Jacksonville Center
Sun 09:34:06 PM 32.0625 -81.9094 355° North 159 183 5,200 -50 Level Jacksonville Center
Sun 09:35:06 PM 32.1086 -81.9139 355° North 159 183 5,100  Descending Jacksonville Center
Sun 09:36:52 PM 32.1897 -81.9258 353° North 174 200 5,200 36 Climbing Atlanta Center
Sun 09:37:52 PM 32.2358 -81.9297 356° North 169 194 5,200 -50 Level Atlanta Center
Sun 09:38:52 PM 32.2836 -81.9308 359° North 169 194 5,100  Descending Atlanta Center
Sun 09:39:52 PM 32.3297 -81.9347 356° North 163 188 5,200  Climbing Atlanta Center
Sun 09:40:52 PM 32.3736 -81.9386 356° North 163 188 5,100  Descending Atlanta Center
Sun 09:41:52 PM 32.4217 -81.9425 356° North 163 188 5,200 50 Climbing Atlanta Center
Sun 09:42:52 PM 32.4678 -81.9461 356° North 163 188 5,200 -50 Level Atlanta Center
Sun 09:43:52 PM 32.5136 -81.9500 356° North 163 188 5,100 -50 Descending Atlanta Center
Sun 09:44:52 PM 32.5597 -81.9514 359° North 163 188 5,100  Level Atlanta Center
Sun 09:45:52 PM 32.6036 -81.9578 353° North 158 182 5,100  Level Atlanta Center
Sun 09:46:52 PM 32.6497 -81.9642 353° North 158 182 5,100 -50 Level Atlanta Center
Sun 09:47:52 PM 32.6956 -81.9681 356° North 163 188 5,000 -50 Descending Atlanta Center
Sun 09:48:52 PM 32.7417 -81.9717 356° North 163 188 5,000 50 Level Atlanta Center
Sun 09:49:52 PM 32.7856 -81.9758 355° North 163 188 5,100  Climbing Atlanta Center
Sun 09:50:52 PM 32.8314 -81.9819 354° North 163 188 5,000 -50 Descending Atlanta Center
Sun 09:51:52 PM 32.8794 -81.9833 359° North 163 188 5,000 50 Level Atlanta Center
Sun 09:52:52 PM 32.9233 -81.9872 356° North 163 188 5,100  Climbing Atlanta Center
Sun 09:53:52 PM 32.9672 -81.9936 353° North 163 188 5,000 -250 Descending Atlanta Center
Sun 09:54:52 PM 33.0133 -81.9975 356° North 163 188 4,600 -400 Descending Atlanta Center
Sun 09:55:52 PM 33.0550 -81.9992 358° North 163 188 4,200 -350 Descending Atlanta Center
Sun 09:56:52 PM 33.1011 -82.0056 353° North 163 188 3,900 -350 Descending Atlanta Center
Sun 09:57:52 PM 33.1472 -82.0094 356° North 163 188 3,500 -350 Descending Atlanta Center
Sun 09:58:52 PM 33.1931 -82.0158 353° North 163 188 3,200 -300 Descending Atlanta Center

Login

Don't have an account? Register now (free) for customized features, flight alerts, and more!